sensor_id;sensor_type;location;lat;lon;timestamp;P1;durP1;ratioP1;P2;durP2;ratioP2
19193;SDS011;9729;52.296;13.260;2024-01-15T00:00:35;19.17;;;11.63;;
19193;SDS011;9729;52.296;13.260;2024-01-15T00:03:01;19.40;;;12.37;;
19193;SDS011;9729;52.296;13.260;2024-01-15T00:05:29;17.00;;;10.37;;
19193;SDS011;9729;52.296;13.260;2024-01-15T00:07:56;19.47;;;11.27;;
19193;SDS011;9729;52.296;13.260;2024-01-15T00:10:22;16.60;;;11.53;;
19193;SDS011;9729;52.296;13.260;2024-01-15T00:12:49;22.63;;;11.73;;
19193;SDS011;9729;52.296;13.260;2024-01-15T00:15:15;18.37;;;11.77;;
19193;SDS011;9729;52.296;13.260;2024-01-15T00:17:42;19.17;;;11.77;;
19193;SDS011;9729;52.296;13.260;2024-01-15T00:20:08;19.77;;;12.53;;
19193;SDS011;9729;52.296;13.260;2024-01-15T00:22:36;19.60;;;11.67;;
19193;SDS011;9729;52.296;13.260;2024-01-15T00:25:03;19.17;;;12.33;;
19193;SDS011;9729;52.296;13.260;2024-01-15T00:27:29;21.97;;;13.03;;
19193;SDS011;9729;52.296;13.260;2024-01-15T00:29:57;20.57;;;13.43;;
19193;SDS011;9729;52.296;13.260;2024-01-15T00:32:23;21.77;;;12.47;;
19193;SDS011;9729;52.296;13.260;2024-01-15T00:34:49;23.97;;;13.57;;
19193;SDS011;9729;52.296;13.260;2024-01-15T00:37:16;20.43;;;12.03;;
19193;SDS011;9729;52.296;13.260;2024-01-15T00:39:44;22.30;;;12.40;;
19193;SDS011;9729;52.296;13.260;2024-01-15T00:42:10;19.50;;;11.53;;
19193;SDS011;9729;52.296;13.260;2024-01-15T00:44:36;18.00;;;12.07;;
19193;SDS011;9729;52.296;13.260;2024-01-15T00:47:03;19.67;;;12.47;;
19193;SDS011;9729;52.296;13.260;2024-01-15T00:49:29;20.07;;;12.27;;
19193;SDS011;9729;52.296;13.260;2024-01-15T00:51:55;16.30;;;10.27;;
19193;SDS011;9729;52.296;13.260;2024-01-15T00:54:22;20.37;;;12.93;;
19193;SDS011;9729;52.296;13.260;2024-01-15T00:56:49;19.03;;;12.60;;
19193;SDS011;9729;52.296;13.260;2024-01-15T00:59:16;19.17;;;12.07;;
19193;SDS011;9729;52.296;13.260;2024-01-15T01:01:42;22.67;;;12.30;;
19193;SDS011;9729;52.296;13.260;2024-01-15T01:04:11;18.30;;;12.03;;
19193;SDS011;9729;52.296;13.260;2024-01-15T01:06:37;22.37;;;13.27;;
19193;SDS011;9729;52.296;13.260;2024-01-15T01:09:03;22.03;;;12.77;;
19193;SDS011;9729;52.296;13.260;2024-01-15T01:11:30;24.53;;;13.33;;
19193;SDS011;9729;52.296;13.260;2024-01-15T01:13:58;17.70;;;10.63;;
19193;SDS011;9729;52.296;13.260;2024-01-15T01:16:24;21.83;;;12.67;;
19193;SDS011;9729;52.296;13.260;2024-01-15T01:18:50;21.93;;;12.97;;
19193;SDS011;9729;52.296;13.260;2024-01-15T01:21:17;22.13;;;13.53;;
19193;SDS011;9729;52.296;13.260;2024-01-15T01:23:43;22.00;;;12.57;;
19193;SDS011;9729;52.296;13.260;2024-01-15T01:26:09;25.80;;;14.00;;
19193;SDS011;9729;52.296;13.260;2024-01-15T01:28:35;21.80;;;12.63;;
19193;SDS011;9729;52.296;13.260;2024-01-15T01:31:03;22.27;;;12.07;;
19193;SDS011;9729;52.296;13.260;2024-01-15T01:33:30;17.87;;;12.57;;
19193;SDS011;9729;52.296;13.260;2024-01-15T01:35:56;26.00;;;14.40;;
19193;SDS011;9729;52.296;13.260;2024-01-15T01:38:22;25.13;;;13.33;;
19193;SDS011;9729;52.296;13.260;2024-01-15T01:40:48;27.10;;;15.13;;
19193;SDS011;9729;52.296;13.260;2024-01-15T01:43:15;24.20;;;14.50;;
19193;SDS011;9729;52.296;13.260;2024-01-15T01:45:41;24.10;;;13.73;;
19193;SDS011;9729;52.296;13.260;2024-01-15T01:48:09;22.60;;;14.00;;
19193;SDS011;9729;52.296;13.260;2024-01-15T01:50:35;22.70;;;14.23;;
19193;SDS011;9729;52.296;13.260;2024-01-15T01:53:02;25.07;;;14.20;;
19193;SDS011;9729;52.296;13.260;2024-01-15T01:55:29;26.03;;;14.47;;
19193;SDS011;9729;52.296;13.260;2024-01-15T01:57:58;23.63;;;14.77;;
19193;SDS011;9729;52.296;13.260;2024-01-15T02:00:24;21.03;;;12.73;;
19193;SDS011;9729;52.296;13.260;2024-01-15T02:02:50;22.97;;;13.57;;
19193;SDS011;9729;52.296;13.260;2024-01-15T02:05:19;20.33;;;13.63;;
19193;SDS011;9729;52.296;13.260;2024-01-15T02:07:47;24.07;;;13.23;;
19193;SDS011;9729;52.296;13.260;2024-01-15T02:10:13;20.60;;;13.17;;
19193;SDS011;9729;52.296;13.260;2024-01-15T02:12:39;21.27;;;11.70;;
19193;SDS011;9729;52.296;13.260;2024-01-15T02:15:06;18.07;;;12.43;;
19193;SDS011;9729;52.296;13.260;2024-01-15T02:17:32;20.53;;;12.90;;
19193;SDS011;9729;52.296;13.260;2024-01-15T02:19:59;21.60;;;11.73;;
19193;SDS011;9729;52.296;13.260;2024-01-15T02:22:26;23.53;;;13.63;;
19193;SDS011;9729;52.296;13.260;2024-01-15T02:24:54;19.63;;;13.23;;
19193;SDS011;9729;52.296;13.260;2024-01-15T02:27:20;16.83;;;11.00;;
19193;SDS011;9729;52.296;13.260;2024-01-15T02:29:47;18.53;;;12.40;;
19193;SDS011;9729;52.296;13.260;2024-01-15T02:32:14;24.47;;;11.77;;
19193;SDS011;9729;52.296;13.260;2024-01-15T02:34:40;18.43;;;11.73;;
19193;SDS011;9729;52.296;13.260;2024-01-15T02:37:06;21.93;;;12.23;;
19193;SDS011;9729;52.296;13.260;2024-01-15T02:39:32;18.70;;;11.43;;
19193;SDS011;9729;52.296;13.260;2024-01-15T02:42:00;20.10;;;12.50;;
19193;SDS011;9729;52.296;13.260;2024-01-15T02:44:26;16.70;;;10.87;;
19193;SDS011;9729;52.296;13.260;2024-01-15T02:46:53;19.87;;;11.60;;
19193;SDS011;9729;52.296;13.260;2024-01-15T02:49:19;15.30;;;9.33;;
19193;SDS011;9729;52.296;13.260;2024-01-15T02:51:45;16.97;;;11.73;;
19193;SDS011;9729;52.296;13.260;2024-01-15T02:54:12;18.80;;;10.43;;
19193;SDS011;9729;52.296;13.260;2024-01-15T02:56:38;20.23;;;12.10;;
19193;SDS011;9729;52.296;13.260;2024-01-15T02:59:06;13.73;;;9.27;;
19193;SDS011;9729;52.296;13.260;2024-01-15T03:01:32;17.20;;;10.33;;
19193;SDS011;9729;52.296;13.260;2024-01-15T03:03:58;16.10;;;9.70;;
19193;SDS011;9729;52.296;13.260;2024-01-15T03:06:25;18.30;;;11.50;;
19193;SDS011;9729;52.296;13.260;2024-01-15T03:08:51;21.07;;;10.27;;
19193;SDS011;9729;52.296;13.260;2024-01-15T03:11:17;18.40;;;10.53;;
19193;SDS011;9729;52.296;13.260;2024-01-15T03:13:44;17.20;;;10.33;;
19193;SDS011;9729;52.296;13.260;2024-01-15T03:16:11;18.37;;;11.13;;
19193;SDS011;9729;52.296;13.260;2024-01-15T03:18:38;16.50;;;9.77;;
19193;SDS011;9729;52.296;13.260;2024-01-15T03:21:04;23.20;;;11.70;;
19193;SDS011;9729;52.296;13.260;2024-01-15T03:23:31;20.97;;;10.53;;
19193;SDS011;9729;52.296;13.260;2024-01-15T03:25:57;18.20;;;10.60;;
19193;SDS011;9729;52.296;13.260;2024-01-15T03:28:23;14.13;;;9.50;;
19193;SDS011;9729;52.296;13.260;2024-01-15T03:30:50;17.03;;;9.77;;
19193;SDS011;9729;52.296;13.260;2024-01-15T03:33:17;20.20;;;12.03;;
19193;SDS011;9729;52.296;13.260;2024-01-15T03:35:43;24.13;;;11.07;;
19193;SDS011;9729;52.296;13.260;2024-01-15T03:38:10;15.93;;;9.30;;
19193;SDS011;9729;52.296;13.260;2024-01-15T03:40:36;18.63;;;10.90;;
19193;SDS011;9729;52.296;13.260;2024-01-15T03:43:02;15.87;;;9.67;;
19193;SDS011;9729;52.296;13.260;2024-01-15T03:45:29;18.13;;;10.27;;
19193;SDS011;9729;52.296;13.260;2024-01-15T03:47:55;27.67;;;11.57;;
19193;SDS011;9729;52.296;13.260;2024-01-15T03:50:23;21.20;;;11.43;;
19193;SDS011;9729;52.296;13.260;2024-01-15T03:52:50;20.10;;;10.90;;
19193;SDS011;9729;52.296;13.260;2024-01-15T03:55:16;21.27;;;10.50;;
19193;SDS011;9729;52.296;13.260;2024-01-15T03:57:42;14.90;;;9.40;;
19193;SDS011;9729;52.296;13.260;2024-01-15T04:00:09;17.40;;;9.87;;
19193;SDS011;9729;52.296;13.260;2024-01-15T04:02:36;20.50;;;9.97;;
19193;SDS011;9729;52.296;13.260;2024-01-15T04:05:02;13.77;;;8.60;;
19193;SDS011;9729;52.296;13.260;2024-01-15T04:07:30;17.33;;;10.03;;
19193;SDS011;9729;52.296;13.260;2024-01-15T04:09:57;14.77;;;8.50;;
19193;SDS011;9729;52.296;13.260;2024-01-15T04:12:24;18.03;;;9.60;;
19193;SDS011;9729;52.296;13.260;2024-01-15T04:14:50;16.83;;;10.23;;
19193;SDS011;9729;52.296;13.260;2024-01-15T04:17:17;12.23;;;8.27;;
19193;SDS011;9729;52.296;13.260;2024-01-15T04:19:43;17.17;;;8.63;;
19193;SDS011;9729;52.296;13.260;2024-01-15T04:22:10;13.87;;;7.50;;
19193;SDS011;9729;52.296;13.260;2024-01-15T04:24:38;12.93;;;7.60;;
19193;SDS011;9729;52.296;13.260;2024-01-15T04:27:04;10.80;;;7.53;;
19193;SDS011;9729;52.296;13.260;2024-01-15T04:29:31;9.43;;;6.33;;
19193;SDS011;9729;52.296;13.260;2024-01-15T04:31:57;11.00;;;7.70;;
19193;SDS011;9729;52.296;13.260;2024-01-15T04:34:23;11.73;;;6.03;;
19193;SDS011;9729;52.296;13.260;2024-01-15T04:36:50;14.33;;;8.03;;
19193;SDS011;9729;52.296;13.260;2024-01-15T04:39:16;16.30;;;7.93;;
19193;SDS011;9729;52.296;13.260;2024-01-15T04:41:44;14.47;;;7.47;;
19193;SDS011;9729;52.296;13.260;2024-01-15T04:44:10;16.50;;;8.67;;
19193;SDS011;9729;52.296;13.260;2024-01-15T04:46:37;14.23;;;7.87;;
19193;SDS011;9729;52.296;13.260;2024-01-15T04:49:03;15.37;;;8.17;;
19193;SDS011;9729;52.296;13.260;2024-01-15T04:51:29;13.33;;;7.43;;
19193;SDS011;9729;52.296;13.260;2024-01-15T04:53:55;10.20;;;6.93;;
19193;SDS011;9729;52.296;13.260;2024-01-15T04:56:22;14.37;;;6.93;;
19193;SDS011;9729;52.296;13.260;2024-01-15T04:58:49;10.93;;;6.73;;
19193;SDS011;9729;52.296;13.260;2024-01-15T05:01:16;11.13;;;6.20;;
19193;SDS011;9729;52.296;13.260;2024-01-15T05:03:42;11.93;;;6.13;;
19193;SDS011;9729;52.296;13.260;2024-01-15T05:06:08;13.87;;;6.93;;
19193;SDS011;9729;52.296;13.260;2024-01-15T05:08:35;20.60;;;7.23;;
19193;SDS011;9729;52.296;13.260;2024-01-15T05:11:01;11.40;;;6.23;;
19193;SDS011;9729;52.296;13.260;2024-01-15T05:13:28;16.93;;;6.83;;
19193;SDS011;9729;52.296;13.260;2024-01-15T05:15:55;10.77;;;6.63;;
19193;SDS011;9729;52.296;13.260;2024-01-15T05:18:22;10.77;;;6.90;;
19193;SDS011;9729;52.296;13.260;2024-01-15T05:20:48;11.23;;;5.43;;
19193;SDS011;9729;52.296;13.260;2024-01-15T05:23:14;17.33;;;7.30;;
19193;SDS011;9729;52.296;13.260;2024-01-15T05:25:41;15.00;;;7.43;;
19193;SDS011;9729;52.296;13.260;2024-01-15T05:28:07;14.47;;;7.10;;
19193;SDS011;9729;52.296;13.260;2024-01-15T05:30:33;11.03;;;5.77;;
19193;SDS011;9729;52.296;13.260;2024-01-15T05:33:01;10.97;;;7.70;;
19193;SDS011;9729;52.296;13.260;2024-01-15T05:35:28;13.63;;;6.63;;
19193;SDS011;9729;52.296;13.260;2024-01-15T05:37:54;13.43;;;6.87;;
19193;SDS011;9729;52.296;13.260;2024-01-15T05:40:21;13.97;;;6.47;;
19193;SDS011;9729;52.296;13.260;2024-01-15T05:42:47;13.30;;;6.60;;
19193;SDS011;9729;52.296;13.260;2024-01-15T05:45:13;16.37;;;6.70;;
19193;SDS011;9729;52.296;13.260;2024-01-15T05:47:40;9.60;;;5.87;;
19193;SDS011;9729;52.296;13.260;2024-01-15T05:50:08;8.30;;;5.40;;
19193;SDS011;9729;52.296;13.260;2024-01-15T05:52:34;15.73;;;5.83;;
19193;SDS011;9729;52.296;13.260;2024-01-15T05:55:00;16.33;;;5.77;;
19193;SDS011;9729;52.296;13.260;2024-01-15T05:57:27;14.03;;;5.93;;
19193;SDS011;9729;52.296;13.260;2024-01-15T05:59:54;13.17;;;6.23;;
19193;SDS011;9729;52.296;13.260;2024-01-15T06:02:20;15.03;;;6.80;;
19193;SDS011;9729;52.296;13.260;2024-01-15T06:04:46;14.57;;;5.90;;
19193;SDS011;9729;52.296;13.260;2024-01-15T06:07:14;15.73;;;5.20;;
19193;SDS011;9729;52.296;13.260;2024-01-15T06:09:40;7.17;;;4.90;;
19193;SDS011;9729;52.296;13.260;2024-01-15T06:12:07;12.43;;;5.37;;
19193;SDS011;9729;52.296;13.260;2024-01-15T06:14:34;17.33;;;5.60;;
19193;SDS011;9729;52.296;13.260;2024-01-15T06:17:00;13.73;;;4.83;;
19193;SDS011;9729;52.296;13.260;2024-01-15T06:19:26;18.67;;;6.63;;
19193;SDS011;9729;52.296;13.260;2024-01-15T06:21:52;20.17;;;5.40;;
19193;SDS011;9729;52.296;13.260;2024-01-15T06:24:19;9.80;;;5.50;;
19193;SDS011;9729;52.296;13.260;2024-01-15T06:26:46;15.70;;;5.43;;
19193;SDS011;9729;52.296;13.260;2024-01-15T06:29:12;15.63;;;6.30;;
19193;SDS011;9729;52.296;13.260;2024-01-15T06:31:38;7.90;;;5.13;;
19193;SDS011;9729;52.296;13.260;2024-01-15T06:34:05;15.10;;;5.50;;
19193;SDS011;9729;52.296;13.260;2024-01-15T06:36:31;8.13;;;5.27;;
19193;SDS011;9729;52.296;13.260;2024-01-15T06:38:57;13.23;;;5.83;;
19193;SDS011;9729;52.296;13.260;2024-01-15T06:41:25;11.37;;;5.87;;
19193;SDS011;9729;52.296;13.260;2024-01-15T06:43:51;15.80;;;4.77;;
19193;SDS011;9729;52.296;13.260;2024-01-15T06:46:19;12.63;;;5.00;;
19193;SDS011;9729;52.296;13.260;2024-01-15T06:48:46;13.17;;;6.07;;
19193;SDS011;9729;52.296;13.260;2024-01-15T06:51:12;14.10;;;5.23;;
19193;SDS011;9729;52.296;13.260;2024-01-15T06:53:39;18.87;;;4.67;;
19193;SDS011;9729;52.296;13.260;2024-01-15T06:56:05;18.27;;;5.90;;
19193;SDS011;9729;52.296;13.260;2024-01-15T06:58:33;12.07;;;5.07;;
19193;SDS011;9729;52.296;13.260;2024-01-15T07:00:59;8.97;;;5.40;;
19193;SDS011;9729;52.296;13.260;2024-01-15T07:03:26;8.13;;;4.53;;
19193;SDS011;9729;52.296;13.260;2024-01-15T07:05:52;8.10;;;4.83;;
19193;SDS011;9729;52.296;13.260;2024-01-15T07:08:19;15.07;;;5.30;;
19193;SDS011;9729;52.296;13.260;2024-01-15T07:10:45;14.33;;;6.00;;
19193;SDS011;9729;52.296;13.260;2024-01-15T07:13:11;9.23;;;5.30;;
19193;SDS011;9729;52.296;13.260;2024-01-15T07:15:39;17.37;;;4.80;;
19193;SDS011;9729;52.296;13.260;2024-01-15T07:18:06;14.30;;;5.40;;
19193;SDS011;9729;52.296;13.260;2024-01-15T07:20:32;11.23;;;5.60;;
19193;SDS011;9729;52.296;13.260;2024-01-15T07:22:59;20.07;;;5.23;;
19193;SDS011;9729;52.296;13.260;2024-01-15T07:25:25;15.00;;;4.83;;
19193;SDS011;9729;52.296;13.260;2024-01-15T07:27:52;17.37;;;5.97;;
19193;SDS011;9729;52.296;13.260;2024-01-15T07:30:19;15.63;;;5.23;;
19193;SDS011;9729;52.296;13.260;2024-01-15T07:32:48;10.83;;;4.70;;
19193;SDS011;9729;52.296;13.260;2024-01-15T07:35:14;8.50;;;4.17;;
19193;SDS011;9729;52.296;13.260;2024-01-15T07:37:41;9.77;;;4.60;;
19193;SDS011;9729;52.296;13.260;2024-01-15T07:40:08;17.17;;;5.43;;
19193;SDS011;9729;52.296;13.260;2024-01-15T07:42:35;15.10;;;4.93;;
19193;SDS011;9729;52.296;13.260;2024-01-15T07:45:03;15.13;;;5.13;;
19193;SDS011;9729;52.296;13.260;2024-01-15T07:47:30;11.57;;;5.23;;
19193;SDS011;9729;52.296;13.260;2024-01-15T07:49:58;17.30;;;6.43;;
19193;SDS011;9729;52.296;13.260;2024-01-15T07:52:24;18.97;;;5.00;;
19193;SDS011;9729;52.296;13.260;2024-01-15T07:54:50;13.43;;;4.83;;
19193;SDS011;9729;52.296;13.260;2024-01-15T07:57:17;14.17;;;4.90;;
19193;SDS011;9729;52.296;13.260;2024-01-15T07:59:43;14.80;;;4.57;;
19193;SDS011;9729;52.296;13.260;2024-01-15T08:02:09;12.67;;;5.27;;
19193;SDS011;9729;52.296;13.260;2024-01-15T08:04:36;11.13;;;5.30;;
19193;SDS011;9729;52.296;13.260;2024-01-15T08:07:04;16.97;;;4.80;;
19193;SDS011;9729;52.296;13.260;2024-01-15T08:09:30;10.00;;;5.17;;
19193;SDS011;9729;52.296;13.260;2024-01-15T08:11:57;8.47;;;4.43;;
19193;SDS011;9729;52.296;13.260;2024-01-15T08:14:23;15.03;;;5.60;;
19193;SDS011;9729;52.296;13.260;2024-01-15T08:16:49;16.93;;;5.50;;
19193;SDS011;9729;52.296;13.260;2024-01-15T08:19:16;12.80;;;5.87;;
19193;SDS011;9729;52.296;13.260;2024-01-15T08:21:43;16.93;;;6.23;;
19193;SDS011;9729;52.296;13.260;2024-01-15T08:24:11;11.33;;;4.63;;
19193;SDS011;9729;52.296;13.260;2024-01-15T08:26:37;10.97;;;4.20;;
19193;SDS011;9729;52.296;13.260;2024-01-15T08:29:04;15.30;;;4.60;;
19193;SDS011;9729;52.296;13.260;2024-01-15T08:31:30;9.67;;;4.97;;
19193;SDS011;9729;52.296;13.260;2024-01-15T08:33:56;11.83;;;5.73;;
19193;SDS011;9729;52.296;13.260;2024-01-15T08:36:24;12.37;;;4.73;;
19193;SDS011;9729;52.296;13.260;2024-01-15T08:38:50;10.33;;;4.13;;
19193;SDS011;9729;52.296;13.260;2024-01-15T08:41:18;7.97;;;5.57;;
19193;SDS011;9729;52.296;13.260;2024-01-15T08:43:44;10.77;;;4.57;;
19193;SDS011;9729;52.296;13.260;2024-01-15T08:46:11;14.47;;;4.93;;
19193;SDS011;9729;52.296;13.260;2024-01-15T08:48:37;9.70;;;4.30;;
19193;SDS011;9729;52.296;13.260;2024-01-15T08:51:04;10.33;;;4.70;;
19193;SDS011;9729;52.296;13.260;2024-01-15T08:53:31;7.97;;;4.53;;
19193;SDS011;9729;52.296;13.260;2024-01-15T08:55:57;11.07;;;4.77;;
19193;SDS011;9729;52.296;13.260;2024-01-15T08:58:25;10.60;;;4.90;;
19193;SDS011;9729;52.296;13.260;2024-01-15T09:00:51;9.80;;;4.20;;
19193;SDS011;9729;52.296;13.260;2024-01-15T09:03:18;11.50;;;4.20;;
19193;SDS011;9729;52.296;13.260;2024-01-15T09:05:44;10.83;;;5.00;;
19193;SDS011;9729;52.296;13.260;2024-01-15T09:08:10;15.87;;;4.30;;
19193;SDS011;9729;52.296;13.260;2024-01-15T09:10:37;11.03;;;4.60;;
19193;SDS011;9729;52.296;13.260;2024-01-15T09:13:03;14.10;;;4.70;;
19193;SDS011;9729;52.296;13.260;2024-01-15T09:15:31;12.50;;;5.77;;
19193;SDS011;9729;52.296;13.260;2024-01-15T09:17:57;16.00;;;5.53;;
19193;SDS011;9729;52.296;13.260;2024-01-15T09:20:24;7.47;;;4.73;;
19193;SDS011;9729;52.296;13.260;2024-01-15T09:22:50;11.57;;;5.17;;
19193;SDS011;9729;52.296;13.260;2024-01-15T09:25:17;13.57;;;5.90;;
19193;SDS011;9729;52.296;13.260;2024-01-15T09:27:44;12.70;;;4.83;;
19193;SDS011;9729;52.296;13.260;2024-01-15T09:30:10;7.57;;;4.77;;
19193;SDS011;9729;52.296;13.260;2024-01-15T09:32:38;15.77;;;5.03;;
19193;SDS011;9729;52.296;13.260;2024-01-15T09:35:05;6.53;;;4.63;;
19193;SDS011;9729;52.296;13.260;2024-01-15T09:37:32;8.97;;;6.17;;
19193;SDS011;9729;52.296;13.260;2024-01-15T09:39:58;10.77;;;4.43;;
19193;SDS011;9729;52.296;13.260;2024-01-15T09:42:24;14.10;;;4.67;;
19193;SDS011;9729;52.296;13.260;2024-01-15T09:44:51;18.37;;;6.17;;
19193;SDS011;9729;52.296;13.260;2024-01-15T09:47:18;8.97;;;4.37;;
19193;SDS011;9729;52.296;13.260;2024-01-15T09:49:48;8.17;;;5.23;;
19193;SDS011;9729;52.296;13.260;2024-01-15T09:52:14;12.10;;;4.80;;
19193;SDS011;9729;52.296;13.260;2024-01-15T09:54:43;6.23;;;4.80;;
19193;SDS011;9729;52.296;13.260;2024-01-15T09:57:09;8.63;;;5.03;;
19193;SDS011;9729;52.296;13.260;2024-01-15T09:59:36;8.70;;;5.03;;
19193;SDS011;9729;52.296;13.260;2024-01-15T10:02:02;6.53;;;5.50;;
19193;SDS011;9729;52.296;13.260;2024-01-15T10:04:29;9.20;;;5.43;;
19193;SDS011;9729;52.296;13.260;2024-01-15T10:06:56;9.87;;;5.87;;
19193;SDS011;9729;52.296;13.260;2024-01-15T10:09:23;11.10;;;4.80;;
19193;SDS011;9729;52.296;13.260;2024-01-15T10:11:50;9.27;;;5.10;;
19193;SDS011;9729;52.296;13.260;2024-01-15T10:14:16;8.53;;;4.87;;
19193;SDS011;9729;52.296;13.260;2024-01-15T10:16:42;11.60;;;5.00;;
19193;SDS011;9729;52.296;13.260;2024-01-15T10:19:09;12.10;;;4.90;;
19193;SDS011;9729;52.296;13.260;2024-01-15T10:21:35;9.53;;;5.20;;
19193;SDS011;9729;52.296;13.260;2024-01-15T10:24:04;6.73;;;5.17;;
19193;SDS011;9729;52.296;13.260;2024-01-15T10:26:30;8.93;;;5.07;;
19193;SDS011;9729;52.296;13.260;2024-01-15T10:28:58;10.30;;;4.90;;
19193;SDS011;9729;52.296;13.260;2024-01-15T10:31:25;13.17;;;6.43;;
19193;SDS011;9729;52.296;13.260;2024-01-15T10:33:52;6.40;;;4.53;;
19193;SDS011;9729;52.296;13.260;2024-01-15T10:36:18;8.97;;;5.50;;
19193;SDS011;9729;52.296;13.260;2024-01-15T10:38:45;14.23;;;5.40;;
19193;SDS011;9729;52.296;13.260;2024-01-15T10:41:13;6.43;;;5.17;;
19193;SDS011;9729;52.296;13.260;2024-01-15T10:43:41;5.03;;;4.63;;
19193;SDS011;9729;52.296;13.260;2024-01-15T10:46:07;7.63;;;4.77;;
19193;SDS011;9729;52.296;13.260;2024-01-15T10:48:33;5.00;;;4.60;;
19193;SDS011;9729;52.296;13.260;2024-01-15T10:51:00;10.60;;;5.10;;
19193;SDS011;9729;52.296;13.260;2024-01-15T10:53:28;11.13;;;5.10;;
19193;SDS011;9729;52.296;13.260;2024-01-15T10:55:56;8.53;;;4.47;;
19193;SDS011;9729;52.296;13.260;2024-01-15T10:58:24;6.33;;;4.70;;
19193;SDS011;9729;52.296;13.260;2024-01-15T11:00:55;11.17;;;5.00;;
19193;SDS011;9729;52.296;13.260;2024-01-15T11:03:22;6.30;;;4.87;;
19193;SDS011;9729;52.296;13.260;2024-01-15T11:05:48;10.07;;;5.53;;
19193;SDS011;9729;52.296;13.260;2024-01-15T11:08:16;8.83;;;4.87;;
19193;SDS011;9729;52.296;13.260;2024-01-15T11:10:44;9.63;;;5.47;;
19193;SDS011;9729;52.296;13.260;2024-01-15T11:13:15;8.30;;;5.07;;
19193;SDS011;9729;52.296;13.260;2024-01-15T11:15:58;6.70;;;4.77;;
19193;SDS011;9729;52.296;13.260;2024-01-15T11:18:26;11.83;;;4.50;;
19193;SDS011;9729;52.296;13.260;2024-01-15T11:23:50;6.80;;;4.83;;
19193;SDS011;9729;52.296;13.260;2024-01-15T11:26:34;6.30;;;5.03;;
19193;SDS011;9729;52.296;13.260;2024-01-15T11:29:02;6.90;;;5.53;;
19193;SDS011;9729;52.296;13.260;2024-01-15T11:34:49;8.33;;;6.17;;
19193;SDS011;9729;52.296;13.260;2024-01-15T11:40:36;8.50;;;6.73;;
19193;SDS011;9729;52.296;13.260;2024-01-15T11:43:03;7.17;;;6.30;;
19193;SDS011;9729;52.296;13.260;2024-01-15T11:45:30;7.17;;;6.20;;
19193;SDS011;9729;52.296;13.260;2024-01-15T11:48:08;9.90;;;7.30;;
19193;SDS011;9729;52.296;13.260;2024-01-15T11:50:39;11.20;;;7.93;;
19193;SDS011;9729;52.296;13.260;2024-01-15T11:53:09;10.20;;;7.10;;
19193;SDS011;9729;52.296;13.260;2024-01-15T11:55:43;9.73;;;6.00;;
19193;SDS011;9729;52.296;13.260;2024-01-15T11:58:11;10.87;;;6.80;;
19193;SDS011;9729;52.296;13.260;2024-01-15T12:00:40;6.70;;;6.13;;
19193;SDS011;9729;52.296;13.260;2024-01-15T12:03:09;8.00;;;6.63;;
19193;SDS011;9729;52.296;13.260;2024-01-15T12:05:36;11.20;;;7.50;;
19193;SDS011;9729;52.296;13.260;2024-01-15T12:08:03;11.10;;;7.43;;
19193;SDS011;9729;52.296;13.260;2024-01-15T12:10:35;7.13;;;6.43;;
19193;SDS011;9729;52.296;13.260;2024-01-15T12:13:03;6.90;;;6.20;;
19193;SDS011;9729;52.296;13.260;2024-01-15T12:15:31;7.73;;;6.20;;
19193;SDS011;9729;52.296;13.260;2024-01-15T12:17:58;8.33;;;5.47;;
19193;SDS011;9729;52.296;13.260;2024-01-15T12:20:28;5.57;;;5.07;;
19193;SDS011;9729;52.296;13.260;2024-01-15T12:22:55;5.73;;;5.23;;
19193;SDS011;9729;52.296;13.260;2024-01-15T12:25:22;9.60;;;5.73;;
19193;SDS011;9729;52.296;13.260;2024-01-15T12:27:48;6.33;;;5.80;;
19193;SDS011;9729;52.296;13.260;2024-01-15T12:30:15;6.03;;;5.20;;
19193;SDS011;9729;52.296;13.260;2024-01-15T12:32:42;5.43;;;5.03;;
19193;SDS011;9729;52.296;13.260;2024-01-15T12:35:09;5.90;;;5.27;;
19193;SDS011;9729;52.296;13.260;2024-01-15T12:37:37;5.53;;;4.87;;
19193;SDS011;9729;52.296;13.260;2024-01-15T12:40:04;5.53;;;4.47;;
19193;SDS011;9729;52.296;13.260;2024-01-15T12:42:32;7.83;;;4.73;;
19193;SDS011;9729;52.296;13.260;2024-01-15T12:44:59;5.47;;;5.10;;
19193;SDS011;9729;52.296;13.260;2024-01-15T12:47:26;14.93;;;4.50;;
19193;SDS011;9729;52.296;13.260;2024-01-15T12:49:52;8.50;;;4.50;;
19193;SDS011;9729;52.296;13.260;2024-01-15T12:52:19;8.80;;;5.50;;
19193;SDS011;9729;52.296;13.260;2024-01-15T12:54:48;8.27;;;5.00;;
19193;SDS011;9729;52.296;13.260;2024-01-15T12:57:14;4.80;;;4.43;;
19193;SDS011;9729;52.296;13.260;2024-01-15T12:59:40;7.80;;;5.03;;
19193;SDS011;9729;52.296;13.260;2024-01-15T13:02:07;6.30;;;4.60;;
19193;SDS011;9729;52.296;13.260;2024-01-15T13:04:33;11.00;;;5.63;;
19193;SDS011;9729;52.296;13.260;2024-01-15T13:06:59;11.20;;;5.80;;
19193;SDS011;9729;52.296;13.260;2024-01-15T13:09:26;8.40;;;5.40;;
19193;SDS011;9729;52.296;13.260;2024-01-15T13:11:53;7.23;;;4.90;;
19193;SDS011;9729;52.296;13.260;2024-01-15T13:14:19;6.53;;;4.83;;
19193;SDS011;9729;52.296;13.260;2024-01-15T13:16:45;9.03;;;5.57;;
19193;SDS011;9729;52.296;13.260;2024-01-15T13:19:11;7.53;;;5.17;;
19193;SDS011;9729;52.296;13.260;2024-01-15T13:21:38;10.33;;;6.40;;
19193;SDS011;9729;52.296;13.260;2024-01-15T13:24:05;9.00;;;5.27;;
19193;SDS011;9729;52.296;13.260;2024-01-15T13:26:31;6.37;;;5.20;;
19193;SDS011;9729;52.296;13.260;2024-01-15T13:28:59;14.37;;;6.60;;
19193;SDS011;9729;52.296;13.260;2024-01-15T13:31:26;10.93;;;5.77;;
19193;SDS011;9729;52.296;13.260;2024-01-15T13:33:52;11.53;;;6.63;;
19193;SDS011;9729;52.296;13.260;2024-01-15T13:36:20;14.17;;;5.87;;
19193;SDS011;9729;52.296;13.260;2024-01-15T13:38:46;8.03;;;5.73;;
19193;SDS011;9729;52.296;13.260;2024-01-15T13:41:13;9.97;;;6.17;;
19193;SDS011;9729;52.296;13.260;2024-01-15T13:43:40;7.07;;;5.23;;
19193;SDS011;9729;52.296;13.260;2024-01-15T13:46:08;9.83;;;5.70;;
19193;SDS011;9729;52.296;13.260;2024-01-15T13:48:34;14.23;;;6.07;;
19193;SDS011;9729;52.296;13.260;2024-01-15T13:51:01;7.50;;;5.77;;
19193;SDS011;9729;52.296;13.260;2024-01-15T13:53:27;6.90;;;5.70;;
19193;SDS011;9729;52.296;13.260;2024-01-15T13:55:54;9.10;;;5.10;;
19193;SDS011;9729;52.296;13.260;2024-01-15T13:58:21;5.67;;;5.13;;
19193;SDS011;9729;52.296;13.260;2024-01-15T14:00:47;15.97;;;5.30;;
19193;SDS011;9729;52.296;13.260;2024-01-15T14:03:15;11.70;;;5.50;;
19193;SDS011;9729;52.296;13.260;2024-01-15T14:05:41;6.30;;;4.90;;
19193;SDS011;9729;52.296;13.260;2024-01-15T14:08:08;11.33;;;4.80;;
19193;SDS011;9729;52.296;13.260;2024-01-15T14:10:34;13.00;;;6.37;;
19193;SDS011;9729;52.296;13.260;2024-01-15T14:13:01;6.23;;;4.90;;
19193;SDS011;9729;52.296;13.260;2024-01-15T14:15:27;9.60;;;5.93;;
19193;SDS011;9729;52.296;13.260;2024-01-15T14:17:53;11.70;;;4.80;;
19193;SDS011;9729;52.296;13.260;2024-01-15T14:20:21;11.20;;;5.23;;
19193;SDS011;9729;52.296;13.260;2024-01-15T14:22:47;7.57;;;5.07;;
19193;SDS011;9729;52.296;13.260;2024-01-15T14:25:13;13.47;;;6.07;;
19193;SDS011;9729;52.296;13.260;2024-01-15T14:27:40;7.87;;;6.23;;
19193;SDS011;9729;52.296;13.260;2024-01-15T14:30:06;12.40;;;5.80;;
19193;SDS011;9729;52.296;13.260;2024-01-15T14:32:34;17.03;;;5.90;;
19193;SDS011;9729;52.296;13.260;2024-01-15T14:35:00;11.93;;;6.73;;
19193;SDS011;9729;52.296;13.260;2024-01-15T14:37:29;16.87;;;5.97;;
19193;SDS011;9729;52.296;13.260;2024-01-15T14:39:56;15.10;;;6.10;;
19193;SDS011;9729;52.296;13.260;2024-01-15T14:42:22;8.93;;;5.60;;